createdAt,value
2022-08-31T00:00:54.771Z,1010.01
2022-08-31T00:01:54.717Z,1010
2022-08-31T00:02:54.708Z,1009.99
2022-08-31T00:03:54.699Z,1009.94
2022-08-31T00:04:54.686Z,1009.94
2022-08-31T00:05:54.682Z,1009.96
2022-08-31T00:06:54.667Z,1009.99
2022-08-31T00:07:54.660Z,1009.98
2022-08-31T00:08:54.669Z,1009.99
2022-08-31T00:09:54.631Z,1009.96
2022-08-31T00:10:54.640Z,1010.08
2022-08-31T00:11:54.621Z,1009.98
2022-08-31T00:12:54.602Z,1009.95
2022-08-31T00:13:54.612Z,1009.96
2022-08-31T00:14:54.582Z,1009.94
2022-08-31T00:15:54.567Z,1009.97
2022-08-31T00:16:54.560Z,1010.01
2022-08-31T00:17:54.548Z,1010.01
2022-08-31T00:18:54.540Z,1010
2022-08-31T00:19:54.535Z,1009.99
2022-08-31T00:20:54.527Z,1010.02
2022-08-31T00:21:54.505Z,1010
2022-08-31T00:22:54.497Z,1009.93
2022-08-31T00:23:54.486Z,1009.96
2022-08-31T00:24:54.469Z,1010.04
2022-08-31T00:25:54.488Z,1010.04
2022-08-31T00:26:54.456Z,1009.97
2022-08-31T00:27:54.440Z,1010.02
2022-08-31T00:28:54.441Z,1010.01
2022-08-31T00:29:54.416Z,1009.95
2022-08-31T00:30:54.407Z,1010
2022-08-31T00:31:54.418Z,1010.04
2022-08-31T00:32:54.404Z,1010.01
2022-08-31T00:33:54.376Z,1010.02
2022-08-31T00:34:54.365Z,1009.96
2022-08-31T00:35:54.352Z,1009.99
2022-08-31T00:36:54.356Z,1009.96
2022-08-31T00:37:54.331Z,1010.04
2022-08-31T00:38:54.323Z,1009.95
2022-08-31T00:39:54.313Z,1010
2022-08-31T00:40:54.375Z,1010.01
2022-08-31T00:41:54.285Z,1009.99
2022-08-31T00:42:54.284Z,1009.97
2022-08-31T00:43:54.267Z,1009.96
2022-08-31T00:44:54.259Z,1009.98
2022-08-31T00:45:54.260Z,1009.94
2022-08-31T00:46:54.250Z,1010.05
2022-08-31T00:47:54.221Z,1009.98
2022-08-31T00:48:54.211Z,1009.96
2022-08-31T00:49:54.204Z,1009.96
2022-08-31T00:50:54.195Z,1009.98
2022-08-31T00:51:54.181Z,1009.95
2022-08-31T00:52:54.184Z,1010.03
2022-08-31T00:53:54.161Z,1010
2022-08-31T00:54:54.153Z,1009.94
2022-08-31T00:55:54.149Z,1010.01
2022-08-31T00:56:54.129Z,1010
2022-08-31T00:57:54.119Z,1009.95
2022-08-31T00:58:54.129Z,1010.01
2022-08-31T00:59:54.090Z,1009.96
2022-08-31T01:00:54.087Z,1009.95
2022-08-31T01:01:54.070Z,1010
2022-08-31T01:02:54.068Z,1010
2022-08-31T01:03:54.049Z,1009.99
2022-08-31T01:04:54.052Z,1009.96
2022-08-31T01:05:54.044Z,1009.96
2022-08-31T01:06:54.025Z,1009.94
2022-08-31T01:07:54.018Z,1009.95
2022-08-31T01:08:53.998Z,1009.93
2022-08-31T01:09:54.000Z,1009.89
2022-08-31T01:10:53.983Z,1009.89
2022-08-31T01:11:53.969Z,1009.88
2022-08-31T01:12:53.968Z,1009.88
2022-08-31T01:13:53.948Z,1009.85
2022-08-31T01:14:53.928Z,1009.86
2022-08-31T01:15:53.925Z,1009.88
2022-08-31T01:16:53.914Z,1009.95
2022-08-31T01:17:53.909Z,1009.93
2022-08-31T01:18:53.893Z,1009.97
2022-08-31T01:19:53.904Z,1009.91
2022-08-31T01:20:53.865Z,1009.95
2022-08-31T01:21:53.858Z,1009.92
2022-08-31T01:22:53.866Z,1009.99
2022-08-31T01:23:53.834Z,1009.93
2022-08-31T01:24:53.825Z,1009.97
2022-08-31T01:25:53.818Z,1009.96
2022-08-31T01:26:53.803Z,1009.87
2022-08-31T01:27:53.812Z,1009.87
2022-08-31T01:28:53.779Z,1009.88
2022-08-31T01:29:53.770Z,1009.9
2022-08-31T01:30:53.765Z,1009.86
2022-08-31T01:31:53.746Z,1009.93
2022-08-31T01:32:53.735Z,1009.9
2022-08-31T01:33:53.740Z,1009.95
2022-08-31T01:34:53.715Z,1009.95
2022-08-31T01:35:53.711Z,1009.9
2022-08-31T01:36:53.709Z,1009.9
2022-08-31T01:37:53.686Z,1009.91
2022-08-31T01:38:53.680Z,1009.86
2022-08-31T01:39:53.675Z,1009.91
2022-08-31T01:40:53.666Z,1009.9
2022-08-31T01:41:53.669Z,1009.96
2022-08-31T01:42:53.629Z,1009.89
2022-08-31T01:43:53.620Z,1009.91
2022-08-31T01:44:53.633Z,1009.95
2022-08-31T01:45:53.598Z,1009.97
2022-08-31T01:46:53.585Z,1009.93
2022-08-31T01:47:53.589Z,1010
2022-08-31T01:48:53.599Z,1009.97
2022-08-31T01:49:53.553Z,1009.98
2022-08-31T01:50:53.549Z,1010.02
2022-08-31T01:51:53.543Z,1009.96
2022-08-31T01:52:53.527Z,1009.97
2022-08-31T01:53:53.520Z,1009.98
2022-08-31T01:54:53.519Z,1010
2022-08-31T01:55:53.500Z,1010.01
2022-08-31T01:56:53.481Z,1010
2022-08-31T01:57:53.478Z,1010.11
2022-08-31T01:58:53.473Z,1010.09
2022-08-31T01:59:53.451Z,1010.1
2022-08-31T02:00:53.448Z,1010.05
2022-08-31T02:01:53.437Z,1010.08
2022-08-31T02:02:53.410Z,1010.02
2022-08-31T02:03:53.405Z,1010
2022-08-31T02:04:53.433Z,1010.1
2022-08-31T02:06:53.372Z,1010.07
2022-08-31T02:07:53.369Z,1010.12
2022-08-31T02:08:53.361Z,1010.07
2022-08-31T02:09:53.341Z,1010.12
2022-08-31T02:10:53.338Z,1010.07
2022-08-31T02:11:53.316Z,1010.05
2022-08-31T02:12:53.307Z,1010.08
2022-08-31T02:13:53.297Z,1010.05
2022-08-31T02:14:53.296Z,1010.03
2022-08-31T02:15:53.292Z,1010.02
2022-08-31T02:16:53.332Z,1010.04
2022-08-31T02:17:53.252Z,1010
2022-08-31T02:18:53.264Z,1009.99
2022-08-31T02:19:53.235Z,1010.02
2022-08-31T02:20:53.221Z,1010.09
2022-08-31T02:21:53.218Z,1010.05
2022-08-31T02:22:53.236Z,1010.07
2022-08-31T02:23:53.194Z,1010.06
2022-08-31T02:24:53.180Z,1010.03
2022-08-31T02:25:53.188Z,1010.02
2022-08-31T02:26:53.181Z,1010.02
2022-08-31T02:27:53.175Z,1010.04
2022-08-31T02:28:53.177Z,1010.07
2022-08-31T02:29:53.132Z,1009.97
2022-08-31T02:30:53.116Z,1010.03
2022-08-31T02:31:53.104Z,1009.96
2022-08-31T02:32:53.100Z,1010.01
2022-08-31T02:33:53.086Z,1010.02
2022-08-31T02:34:53.088Z,1010.03
2022-08-31T02:35:53.068Z,1009.96
2022-08-31T02:36:53.052Z,1009.98
2022-08-31T02:37:53.041Z,1010.01
2022-08-31T02:38:53.031Z,1010
2022-08-31T02:39:53.020Z,1009.97
2022-08-31T02:40:53.015Z,1010.01
2022-08-31T02:41:53.003Z,1010.01
2022-08-31T02:42:52.991Z,1009.93
2022-08-31T02:43:52.984Z,1009.96
2022-08-31T02:44:52.970Z,1009.92
2022-08-31T02:45:52.957Z,1009.92
2022-08-31T02:46:52.946Z,1009.94
2022-08-31T02:47:52.930Z,1009.96
2022-08-31T02:48:52.925Z,1009.91
2022-08-31T02:49:52.912Z,1009.95
2022-08-31T02:50:52.917Z,1009.94
2022-08-31T02:51:52.901Z,1009.97
2022-08-31T02:52:52.884Z,1009.91
2022-08-31T02:53:52.883Z,1009.9
2022-08-31T02:54:52.856Z,1009.91
2022-08-31T02:55:52.853Z,1009.91
2022-08-31T02:56:52.846Z,1009.89
2022-08-31T02:57:52.827Z,1009.94
2022-08-31T02:58:52.819Z,1009.89
2022-08-31T02:59:52.810Z,1009.9
2022-08-31T03:00:52.793Z,1009.86
2022-08-31T03:01:52.792Z,1009.85
2022-08-31T03:02:52.776Z,1009.9
2022-08-31T03:03:52.765Z,1009.86
2022-08-31T03:04:52.756Z,1009.89
2022-08-31T03:05:52.748Z,1009.85
2022-08-31T03:06:52.737Z,1009.9
2022-08-31T03:07:52.739Z,1009.9
2022-08-31T03:08:52.710Z,1009.82
2022-08-31T03:09:52.701Z,1009.86
2022-08-31T03:10:52.688Z,1009.87
2022-08-31T03:11:52.675Z,1009.85
2022-08-31T03:12:52.672Z,1009.89
2022-08-31T03:13:52.685Z,1009.88
2022-08-31T03:14:52.648Z,1009.85
2022-08-31T03:15:52.638Z,1009.8
2022-08-31T03:16:52.622Z,1009.9
2022-08-31T03:17:52.614Z,1009.84
2022-08-31T03:18:52.613Z,1009.87
2022-08-31T03:19:52.589Z,1009.78
2022-08-31T03:20:52.586Z,1009.81
2022-08-31T03:21:52.578Z,1009.82
2022-08-31T03:22:52.560Z,1009.8
2022-08-31T03:23:52.568Z,1009.77
2022-08-31T03:26:21.573Z,1009.92
2022-08-31T03:27:21.557Z,1009.91
2022-08-31T03:28:21.564Z,1009.89
2022-08-31T03:29:21.567Z,1009.85
2022-08-31T03:30:21.545Z,1009.91
2022-08-31T03:31:21.520Z,1009.91
2022-08-31T03:32:21.504Z,1009.89
2022-08-31T03:33:21.497Z,1009.92
2022-08-31T03:34:21.483Z,1009.97
2022-08-31T03:35:21.477Z,1009.96
2022-08-31T03:36:21.473Z,1009.99
2022-08-31T03:37:21.453Z,1009.98
2022-08-31T03:38:21.435Z,1009.97
2022-08-31T03:39:21.446Z,1009.95
2022-08-31T03:40:21.420Z,1009.95
2022-08-31T03:41:21.413Z,1009.93
2022-08-31T03:42:21.397Z,1009.9
2022-08-31T03:43:21.389Z,1009.86
2022-08-31T03:44:21.385Z,1009.82
2022-08-31T03:45:21.364Z,1009.88
2022-08-31T03:46:21.353Z,1009.87
2022-08-31T03:47:21.344Z,1009.89
2022-08-31T03:48:21.338Z,1009.88
2022-08-31T03:49:21.320Z,1009.92
2022-08-31T03:50:21.315Z,1009.89
2022-08-31T03:51:21.319Z,1009.95
2022-08-31T03:52:21.301Z,1009.98
2022-08-31T03:53:21.282Z,1009.96
2022-08-31T03:54:21.270Z,1009.96
2022-08-31T03:55:21.259Z,1009.92
2022-08-31T03:56:21.259Z,1009.96
2022-08-31T03:57:21.239Z,1009.91
2022-08-31T03:58:21.235Z,1009.93
2022-08-31T03:59:21.213Z,1009.91
2022-08-31T04:00:21.220Z,1009.91
2022-08-31T04:01:21.190Z,1010
2022-08-31T04:02:21.188Z,1009.96
2022-08-31T04:03:21.177Z,1010.02
2022-08-31T04:04:21.166Z,1010.09
2022-08-31T04:05:21.152Z,1010.12
2022-08-31T04:06:21.136Z,1010.08
2022-08-31T04:07:21.130Z,1010.1
2022-08-31T04:08:21.117Z,1010.1
2022-08-31T04:09:21.108Z,1010.14
2022-08-31T04:10:21.095Z,1010.08
2022-08-31T04:11:21.105Z,1010.19
2022-08-31T04:12:21.083Z,1010.15
2022-08-31T04:13:21.065Z,1010.17
2022-08-31T04:14:21.057Z,1010.18
2022-08-31T04:15:21.050Z,1010.16
2022-08-31T04:16:21.113Z,1010.19
2022-08-31T04:17:21.032Z,1010.21
2022-08-31T04:18:21.008Z,1010.17
2022-08-31T04:19:21.005Z,1010.24
2022-08-31T04:20:20.993Z,1010.19
2022-08-31T04:21:20.980Z,1010.23
2022-08-31T04:22:20.972Z,1010.22
2022-08-31T04:23:20.980Z,1010.17
2022-08-31T04:24:20.950Z,1010.2
2022-08-31T04:25:20.944Z,1010.16
2022-08-31T04:26:20.932Z,1010.15
2022-08-31T04:27:20.968Z,1010.2
2022-08-31T04:28:20.899Z,1010.19
2022-08-31T04:29:20.891Z,1010.22
2022-08-31T04:30:20.884Z,1010.23
2022-08-31T04:31:20.873Z,1010.19
2022-08-31T04:32:20.862Z,1010.22
2022-08-31T04:33:20.858Z,1010.23
2022-08-31T04:34:20.839Z,1010.18
2022-08-31T04:35:20.825Z,1010.19
2022-08-31T04:36:20.825Z,1010.19
2022-08-31T04:37:20.835Z,1010.13
2022-08-31T04:38:20.809Z,1010.13
2022-08-31T04:39:20.789Z,1010.19
2022-08-31T04:40:20.777Z,1010.2
2022-08-31T04:41:20.774Z,1010.19
2022-08-31T04:42:20.760Z,1010.18
2022-08-31T04:43:20.775Z,1010.2
2022-08-31T04:44:20.733Z,1010.21
2022-08-31T04:45:20.723Z,1010.22
2022-08-31T04:46:20.719Z,1010.14
2022-08-31T04:47:20.715Z,1010.21
2022-08-31T04:48:20.687Z,1010.14
2022-08-31T04:49:20.681Z,1010.18
2022-08-31T04:50:20.672Z,1010.25
2022-08-31T04:51:20.667Z,1010.23
2022-08-31T04:52:20.646Z,1010.22
2022-08-31T04:53:20.648Z,1010.23
2022-08-31T04:54:20.627Z,1010.24
2022-08-31T04:55:20.618Z,1010.24
2022-08-31T04:56:20.638Z,1010.19
2022-08-31T04:57:20.599Z,1010.24
2022-08-31T04:58:20.587Z,1010.21
2022-08-31T04:59:20.588Z,1010.24
2022-08-31T05:00:20.565Z,1010.23
2022-08-31T05:01:20.552Z,1010.28
2022-08-31T05:02:20.540Z,1010.25
2022-08-31T05:03:20.530Z,1010.26
2022-08-31T05:04:20.524Z,1010.23
2022-08-31T05:05:20.531Z,1010.29
2022-08-31T05:06:20.499Z,1010.31
2022-08-31T05:07:20.489Z,1010.27
2022-08-31T05:08:20.479Z,1010.28
2022-08-31T05:09:20.462Z,1010.34
2022-08-31T05:10:20.466Z,1010.31
2022-08-31T05:11:20.462Z,1010.34
2022-08-31T05:12:20.449Z,1010.31
2022-08-31T05:13:20.424Z,1010.31
2022-08-31T05:14:20.424Z,1010.38
2022-08-31T05:15:20.413Z,1010.36
2022-08-31T05:16:20.409Z,1010.39
2022-08-31T05:17:20.401Z,1010.38
2022-08-31T05:18:20.409Z,1010.41
2022-08-31T05:19:20.371Z,1010.4
2022-08-31T05:20:20.345Z,1010.39
2022-08-31T05:21:20.369Z,1010.4
2022-08-31T05:22:20.343Z,1010.43
2022-08-31T05:23:20.330Z,1010.48
2022-08-31T05:24:20.303Z,1010.41
2022-08-31T05:25:20.299Z,1010.45
2022-08-31T05:26:20.287Z,1010.45
2022-08-31T05:27:20.272Z,1010.46
2022-08-31T05:28:20.262Z,1010.48
2022-08-31T05:29:20.255Z,1010.46
2022-08-31T05:30:20.239Z,1010.44
2022-08-31T05:31:20.237Z,1010.42
2022-08-31T05:32:20.226Z,1010.48
2022-08-31T05:33:20.213Z,1010.51
2022-08-31T05:34:20.204Z,1010.54
2022-08-31T05:35:20.246Z,1010.48
2022-08-31T05:36:20.208Z,1010.55
2022-08-31T05:37:20.194Z,1010.51
2022-08-31T05:38:20.180Z,1010.51
2022-08-31T05:39:20.175Z,1010.55
2022-08-31T05:40:20.146Z,1010.56
2022-08-31T05:41:20.158Z,1010.54
2022-08-31T05:42:20.216Z,1010.54
2022-08-31T05:43:20.099Z,1010.56
2022-08-31T05:44:20.101Z,1010.61
2022-08-31T05:45:20.085Z,1010.59
2022-08-31T05:46:20.072Z,1010.54
2022-08-31T05:47:20.094Z,1010.56
2022-08-31T05:48:20.053Z,1010.54
2022-08-31T05:49:20.036Z,1010.49
2022-08-31T05:50:20.029Z,1010.61
2022-08-31T05:51:20.013Z,1010.58
2022-08-31T05:52:20.001Z,1010.59
2022-08-31T05:53:19.999Z,1010.65
2022-08-31T05:54:20.009Z,1010.61
2022-08-31T05:55:19.992Z,1010.62
2022-08-31T05:56:19.973Z,1010.62
2022-08-31T05:57:19.953Z,1010.7
2022-08-31T05:58:19.936Z,1010.65
2022-08-31T05:59:19.947Z,1010.66
2022-08-31T06:00:19.918Z,1010.71
2022-08-31T06:01:19.918Z,1010.67
2022-08-31T06:02:19.899Z,1010.71
2022-08-31T06:03:19.886Z,1010.68
2022-08-31T06:04:19.882Z,1010.72
2022-08-31T06:05:19.864Z,1010.73
2022-08-31T06:06:19.856Z,1010.71
2022-08-31T06:07:19.862Z,1010.73
2022-08-31T06:08:19.900Z,1010.76
2022-08-31T06:09:19.823Z,1010.75
2022-08-31T06:10:19.811Z,1010.73
2022-08-31T06:11:19.801Z,1010.74
2022-08-31T06:12:19.793Z,1010.71
2022-08-31T06:13:19.778Z,1010.81
2022-08-31T06:14:19.773Z,1010.72
2022-08-31T06:15:19.762Z,1010.77
2022-08-31T06:16:19.809Z,1010.76
2022-08-31T06:17:19.803Z,1010.79
2022-08-31T06:18:19.764Z,1010.77
2022-08-31T06:19:19.772Z,1010.83
2022-08-31T06:20:19.768Z,1010.89
2022-08-31T06:21:19.692Z,1010.8
2022-08-31T06:22:19.680Z,1010.83
2022-08-31T06:23:19.674Z,1010.79
2022-08-31T06:24:19.700Z,1010.81
2022-08-31T06:25:19.655Z,1010.81
2022-08-31T06:26:19.640Z,1010.83
2022-08-31T06:27:19.630Z,1010.81
2022-08-31T06:28:19.617Z,1010.83
2022-08-31T06:29:19.611Z,1010.81
2022-08-31T06:30:19.605Z,1010.8
2022-08-31T06:31:19.584Z,1010.83
2022-08-31T06:32:19.580Z,1010.8
2022-08-31T06:33:19.574Z,1010.83
2022-08-31T06:34:19.552Z,1010.85
2022-08-31T06:35:19.549Z,1010.84
2022-08-31T06:36:19.532Z,1010.82
2022-08-31T06:37:19.518Z,1010.82
2022-08-31T06:38:19.509Z,1010.85
2022-08-31T06:39:19.520Z,1010.88
2022-08-31T06:40:19.488Z,1010.86
2022-08-31T06:41:19.488Z,1010.88
2022-08-31T06:42:19.470Z,1010.85
2022-08-31T06:43:19.455Z,1010.88
2022-08-31T06:44:19.454Z,1010.87
2022-08-31T06:45:19.514Z,1010.89
2022-08-31T06:46:19.428Z,1010.88
2022-08-31T06:47:19.424Z,1010.89
2022-08-31T06:48:19.397Z,1010.9
2022-08-31T06:49:19.416Z,1010.84
2022-08-31T06:50:19.387Z,1010.88
2022-08-31T06:51:19.398Z,1010.88
2022-08-31T06:52:27.171Z,1010.87
2022-08-31T06:53:19.351Z,1010.86
2022-08-31T06:54:19.332Z,1010.84
2022-08-31T06:55:19.327Z,1010.92
2022-08-31T06:56:19.329Z,1010.95
2022-08-31T06:57:19.308Z,1010.93
2022-08-31T06:58:19.298Z,1010.93
2022-08-31T06:59:19.290Z,1010.99
2022-08-31T07:00:19.276Z,1010.84
2022-08-31T07:01:19.269Z,1010.91
2022-08-31T07:02:19.254Z,1010.87
2022-08-31T07:03:19.256Z,1010.95
2022-08-31T07:04:19.243Z,1011.01
2022-08-31T07:05:19.220Z,1010.97
2022-08-31T07:06:19.211Z,1010.91
2022-08-31T07:07:19.208Z,1010.97
2022-08-31T07:08:19.188Z,1010.94
2022-08-31T07:09:19.176Z,1010.97
2022-08-31T07:10:19.164Z,1010.95
2022-08-31T07:11:19.148Z,1011
2022-08-31T07:12:19.143Z,1010.97
2022-08-31T07:13:19.142Z,1011.04
2022-08-31T07:14:19.124Z,1011.05
2022-08-31T07:15:19.146Z,1011.04
2022-08-31T07:16:19.102Z,1011.01
2022-08-31T07:17:19.089Z,1011.03
2022-08-31T07:18:19.093Z,1011
2022-08-31T07:19:19.079Z,1011.02
2022-08-31T07:20:19.060Z,1011.02
2022-08-31T07:21:19.060Z,1011.05
2022-08-31T07:22:19.040Z,1011.07
2022-08-31T07:23:19.027Z,1011.05
2022-08-31T07:24:19.018Z,1011.06
2022-08-31T07:25:19.004Z,1011.01
2022-08-31T07:26:19.004Z,1011.07
2022-08-31T07:27:18.983Z,1011.08
2022-08-31T07:28:19.003Z,1011.08
2022-08-31T07:29:18.973Z,1011.09
2022-08-31T07:30:18.947Z,1011.05
2022-08-31T07:31:18.939Z,1011.07
2022-08-31T07:32:18.970Z,1011.04
2022-08-31T07:33:18.922Z,1011.05
2022-08-31T07:34:18.922Z,1011.04
2022-08-31T07:35:18.903Z,1011.03
2022-08-31T07:36:18.884Z,1011.11
2022-08-31T07:37:18.885Z,1011.06
2022-08-31T07:38:18.866Z,1011.11
2022-08-31T07:39:18.851Z,1011.05
2022-08-31T07:40:18.848Z,1011.15
2022-08-31T07:41:18.868Z,1011.08
2022-08-31T07:42:18.818Z,1011.1
2022-08-31T07:43:18.814Z,1011.05
2022-08-31T07:44:18.816Z,1011.08
2022-08-31T07:45:18.787Z,1011.13
2022-08-31T07:46:18.781Z,1011.11
2022-08-31T07:47:18.770Z,1011.12
2022-08-31T07:48:18.886Z,1011.13
2022-08-31T07:50:38.137Z,1011.13
2022-08-31T07:51:38.071Z,1011.18
2022-08-31T07:52:38.183Z,1011.18
2022-08-31T07:53:38.054Z,1011.17
2022-08-31T07:54:38.061Z,1011.17
2022-08-31T07:55:38.046Z,1011.19
2022-08-31T07:56:38.024Z,1011.2
2022-08-31T07:57:38.016Z,1011.18
2022-08-31T07:58:38.032Z,1011.19
2022-08-31T07:59:37.985Z,1011.24
2022-08-31T08:00:37.987Z,1011.21
2022-08-31T08:01:37.967Z,1011.26
2022-08-31T08:02:38.022Z,1011.15
2022-08-31T08:03:37.950Z,1011.21
2022-08-31T08:04:37.943Z,1011.19
2022-08-31T08:05:37.929Z,1011.2
2022-08-31T08:06:37.922Z,1011.24
2022-08-31T08:07:37.906Z,1011.27
2022-08-31T08:08:37.902Z,1011.29
2022-08-31T08:09:37.888Z,1011.23
2022-08-31T08:10:37.882Z,1011.24
2022-08-31T08:11:37.866Z,1011.22
2022-08-31T08:12:38.642Z,1011.25
2022-08-31T08:13:37.846Z,1011.34
2022-08-31T08:14:37.853Z,1011.24
2022-08-31T08:15:37.910Z,1011.33
2022-08-31T08:16:37.816Z,1011.3
2022-08-31T08:17:37.815Z,1011.32
2022-08-31T08:18:37.805Z,1011.28
2022-08-31T08:19:37.874Z,1011.33
2022-08-31T08:20:37.780Z,1011.35
2022-08-31T08:21:37.766Z,1011.33
2022-08-31T08:22:37.758Z,1011.36
2022-08-31T08:23:37.746Z,1011.33
2022-08-31T08:24:37.729Z,1011.31
2022-08-31T08:25:37.724Z,1011.37
2022-08-31T08:26:37.714Z,1011.36
2022-08-31T08:27:37.707Z,1011.36
2022-08-31T08:28:37.685Z,1011.29
2022-08-31T08:29:37.681Z,1011.41
2022-08-31T08:30:37.668Z,1011.3
2022-08-31T08:31:37.695Z,1011.32
2022-08-31T08:32:37.652Z,1011.27
2022-08-31T08:33:37.634Z,1011.33
2022-08-31T08:34:37.627Z,1011.34
2022-08-31T08:35:37.620Z,1011.36
2022-08-31T08:36:37.672Z,1011.34
2022-08-31T08:37:37.610Z,1011.3
2022-08-31T08:38:37.587Z,1011.26
2022-08-31T08:39:37.575Z,1011.34
2022-08-31T08:40:37.566Z,1011.31
2022-08-31T08:41:37.604Z,1011.36
2022-08-31T08:42:37.544Z,1011.32
2022-08-31T08:43:37.527Z,1011.29
2022-08-31T08:44:37.529Z,1011.34
2022-08-31T08:45:37.529Z,1011.37
2022-08-31T08:46:37.512Z,1011.32
2022-08-31T08:47:37.492Z,1011.35
2022-08-31T08:48:37.484Z,1011.29
2022-08-31T08:49:37.468Z,1011.35
2022-08-31T08:50:37.473Z,1011.3
2022-08-31T08:51:37.463Z,1011.31
2022-08-31T08:52:37.441Z,1011.31
2022-08-31T08:53:37.433Z,1011.23
2022-08-31T08:54:37.468Z,1011.32
2022-08-31T08:55:37.401Z,1011.31
2022-08-31T08:56:37.393Z,1011.33
2022-08-31T08:57:37.418Z,1011.34
2022-08-31T08:58:38.183Z,1011.34
2022-08-31T08:59:37.385Z,1011.3
2022-08-31T09:00:37.355Z,1011.33
2022-08-31T09:01:37.337Z,1011.3
2022-08-31T09:02:37.327Z,1011.36
2022-08-31T09:03:37.335Z,1011.37
2022-08-31T09:04:37.310Z,1011.27
2022-08-31T09:05:37.353Z,1011.31
2022-08-31T09:06:37.293Z,1011.3
2022-08-31T09:07:37.278Z,1011.34
2022-08-31T09:08:37.294Z,1011.4
2022-08-31T09:09:37.261Z,1011.26
2022-08-31T09:10:37.340Z,1011.35
2022-08-31T09:11:38.238Z,1011.36
2022-08-31T09:12:37.242Z,1011.33
2022-08-31T09:13:37.242Z,1011.36
2022-08-31T09:14:37.213Z,1011.38
2022-08-31T09:15:37.231Z,1011.41
2022-08-31T09:16:37.182Z,1011.42
2022-08-31T09:17:37.178Z,1011.32
2022-08-31T09:18:38.083Z,1011.21
2022-08-31T09:19:37.155Z,1011.3
2022-08-31T09:20:37.150Z,1011.36
2022-08-31T09:21:37.211Z,1011.31
2022-08-31T09:22:37.144Z,1011.28
2022-08-31T09:23:37.115Z,1011.26
2022-08-31T09:24:37.433Z,1011.36
2022-08-31T09:25:37.100Z,1011.35
2022-08-31T09:26:37.090Z,1011.32
2022-08-31T09:27:37.097Z,1011.26
2022-08-31T09:28:37.062Z,1011.26
2022-08-31T09:29:37.051Z,1011.33
2022-08-31T09:30:37.078Z,1011.3
2022-08-31T09:31:37.160Z,1011.35
2022-08-31T09:32:37.063Z,1011.29
2022-08-31T09:33:37.044Z,1011.3
2022-08-31T09:34:37.001Z,1011.28
2022-08-31T09:35:36.992Z,1011.31
2022-08-31T09:36:36.990Z,1011.23
2022-08-31T09:37:36.977Z,1011.19
2022-08-31T09:38:36.965Z,1011.22
2022-08-31T09:39:36.953Z,1011.19
2022-08-31T09:40:36.941Z,1011.22
2022-08-31T09:41:37.069Z,1011.25
2022-08-31T09:42:37.037Z,1011.18
2022-08-31T09:43:36.907Z,1011.24
2022-08-31T09:44:36.899Z,1011.17
2022-08-31T09:45:36.892Z,1011.2
2022-08-31T09:46:36.891Z,1011.2
2022-08-31T09:47:36.860Z,1011.19
2022-08-31T09:48:36.853Z,1011.16
2022-08-31T09:49:36.846Z,1011.19
2022-08-31T09:50:36.847Z,1011.19
2022-08-31T09:51:36.825Z,1011.23
2022-08-31T09:52:36.827Z,1011.23
2022-08-31T09:53:36.796Z,1011.18
2022-08-31T09:54:36.795Z,1011.24
2022-08-31T09:55:36.796Z,1011.29
2022-08-31T09:56:36.803Z,1011.2
2022-08-31T09:57:36.795Z,1011.21
2022-08-31T09:58:36.751Z,1011.25
2022-08-31T09:59:36.746Z,1011.19
2022-08-31T10:00:36.764Z,1011.14
2022-08-31T10:01:36.753Z,1011.12
2022-08-31T10:02:36.724Z,1011.13
2022-08-31T10:03:36.706Z,1011.17
2022-08-31T10:04:36.704Z,1011.19
2022-08-31T10:05:36.688Z,1011.23
2022-08-31T10:06:36.676Z,1011.29
2022-08-31T10:07:36.710Z,1011.33
2022-08-31T10:08:36.666Z,1011.33
2022-08-31T10:09:36.633Z,1011.28
2022-08-31T10:10:36.653Z,1011.21
2022-08-31T10:11:36.610Z,1011.22
2022-08-31T10:12:36.624Z,1011.27
2022-08-31T10:13:36.599Z,1011.28
2022-08-31T10:14:36.587Z,1011.33
2022-08-31T10:15:36.577Z,1011.18
2022-08-31T10:16:36.586Z,1011.24
2022-08-31T10:17:36.575Z,1011.22
2022-08-31T10:18:36.558Z,1011.37
2022-08-31T10:19:36.547Z,1011.34
2022-08-31T10:20:36.532Z,1011.33
2022-08-31T10:21:36.510Z,1011.31
2022-08-31T10:22:36.491Z,1011.33
2022-08-31T10:23:36.499Z,1011.25
2022-08-31T10:24:36.477Z,1011.29
2022-08-31T10:25:36.469Z,1011.28
2022-08-31T10:26:36.458Z,1011.26
2022-08-31T10:27:36.555Z,1011.27
2022-08-31T10:28:36.434Z,1011.25
2022-08-31T10:29:36.444Z,1011.24
2022-08-31T10:30:36.418Z,1011.13
2022-08-31T10:31:36.423Z,1011.15
2022-08-31T10:32:36.409Z,1011.21
2022-08-31T10:33:36.386Z,1011.2
2022-08-31T10:34:36.386Z,1011.15
2022-08-31T10:35:36.364Z,1011.12
2022-08-31T10:36:36.354Z,1011.12
2022-08-31T10:37:36.348Z,1011.14
2022-08-31T10:38:36.361Z,1011.05
2022-08-31T10:39:37.332Z,1011.11
2022-08-31T10:40:36.308Z,1011.13
2022-08-31T10:41:36.351Z,1011.11
2022-08-31T10:42:36.295Z,1011.14
2022-08-31T10:43:36.298Z,1011.12
2022-08-31T10:44:36.285Z,1011.12
2022-08-31T10:45:36.270Z,1011.14
2022-08-31T10:46:36.272Z,1011.1
2022-08-31T10:47:36.242Z,1011.17
2022-08-31T10:48:36.238Z,1011.28
2022-08-31T10:49:36.215Z,1011.26
2022-08-31T10:50:36.214Z,1011.24
2022-08-31T10:51:36.204Z,1011.37
2022-08-31T10:52:36.184Z,1011.34
2022-08-31T10:53:36.261Z,1011.11
2022-08-31T10:54:36.193Z,1011.28
2022-08-31T10:55:36.160Z,1011.21
2022-08-31T10:56:36.160Z,1011.19
2022-08-31T10:57:36.164Z,1011.32
2022-08-31T10:58:36.131Z,1011.29
2022-08-31T10:59:36.138Z,1011.34
2022-08-31T11:00:36.111Z,1011.33
2022-08-31T11:01:36.104Z,1011.3
2022-08-31T11:02:36.093Z,1011.3
2022-08-31T11:03:36.100Z,1011.34
2022-08-31T11:04:36.087Z,1011.4
2022-08-31T11:05:36.056Z,1011.35
2022-08-31T11:06:36.042Z,1011.4
2022-08-31T11:07:36.051Z,1011.34
2022-08-31T11:08:36.022Z,1011.34
2022-08-31T11:09:36.026Z,1011.41
2022-08-31T11:10:36.018Z,1011.32
2022-08-31T11:11:35.995Z,1011.37
2022-08-31T11:12:36.013Z,1011.37
2022-08-31T11:13:35.980Z,1011.41
2022-08-31T11:14:36.067Z,1011.37
2022-08-31T11:15:35.960Z,1011.42
2022-08-31T11:16:35.941Z,1011.52
2022-08-31T11:17:35.941Z,1011.46
2022-08-31T11:18:35.937Z,1011.42
2022-08-31T11:19:35.923Z,1011.48
2022-08-31T11:20:35.935Z,1011.43
2022-08-31T11:21:35.907Z,1011.43
2022-08-31T11:22:35.888Z,1011.48
2022-08-31T11:23:35.881Z,1011.4
2022-08-31T11:24:35.910Z,1011.37
2022-08-31T11:25:35.873Z,1011.39
2022-08-31T11:26:36.663Z,1011.42
2022-08-31T11:27:35.856Z,1011.37
2022-08-31T11:28:35.835Z,1011.41
2022-08-31T11:29:35.830Z,1011.38
2022-08-31T11:30:35.839Z,1011.37
2022-08-31T11:31:36.801Z,1011.49
2022-08-31T11:32:35.979Z,1011.45
2022-08-31T11:33:35.778Z,1011.34
2022-08-31T11:34:35.770Z,1011.44
2022-08-31T11:35:35.776Z,1011.42
2022-08-31T11:36:35.783Z,1011.46
2022-08-31T11:37:35.761Z,1011.38
2022-08-31T11:38:35.748Z,1011.43
2022-08-31T11:39:35.723Z,1011.42
2022-08-31T11:40:35.716Z,1011.37
2022-08-31T11:41:35.750Z,1011.44
2022-08-31T11:42:35.727Z,1011.37
2022-08-31T11:43:35.687Z,1011.34
2022-08-31T11:44:35.680Z,1011.41
2022-08-31T11:45:36.606Z,1011.3
2022-08-31T11:46:35.664Z,1011.34
2022-08-31T11:47:35.695Z,1011.24
2022-08-31T11:48:35.654Z,1011.29
2022-08-31T11:49:35.627Z,1011.27
2022-08-31T11:50:36.220Z,1011.34
2022-08-31T11:51:35.606Z,1011.29
2022-08-31T11:52:35.592Z,1011.28
2022-08-31T11:53:35.628Z,1011.36
2022-08-31T11:54:35.573Z,1011.17
2022-08-31T11:55:35.576Z,1011.2
2022-08-31T11:56:35.574Z,1010.96
2022-08-31T11:57:35.586Z,1011.21
2022-08-31T11:58:35.544Z,1011.26
2022-08-31T11:59:35.535Z,1011.29
2022-08-31T12:00:35.522Z,1011.34
2022-08-31T12:01:35.504Z,1011.33
2022-08-31T12:02:35.500Z,1011.31
2022-08-31T12:03:35.543Z,1011.24
2022-08-31T12:04:35.556Z,1011.25
2022-08-31T12:05:35.498Z,1011.22
2022-08-31T12:06:35.461Z,1011.19
2022-08-31T12:07:35.452Z,1011.24
2022-08-31T12:08:35.445Z,1011.15
2022-08-31T12:09:35.429Z,1011.23
2022-08-31T12:10:35.424Z,1011.21
2022-08-31T12:11:35.602Z,1011.17
2022-08-31T12:12:36.398Z,1011.27
2022-08-31T12:13:35.397Z,1011